createdAt,value
2024-02-21T00:01:17.259Z,19.73
2024-02-21T00:03:44.307Z,20.92
2024-02-21T00:06:10.977Z,17.83
2024-02-21T00:08:37.754Z,22.85
2024-02-21T00:11:04.979Z,19.17
2024-02-21T00:13:32.075Z,21.08
2024-02-21T00:15:58.675Z,19.17
2024-02-21T00:18:28.864Z,17.85
2024-02-21T00:20:57.387Z,19.60
2024-02-21T00:23:24.118Z,21.30
2024-02-21T00:25:51.267Z,18.80
2024-02-21T00:28:18.151Z,21.08
2024-02-21T00:30:45.067Z,19.88
2024-02-21T00:33:11.903Z,21.52
2024-02-21T00:35:39.491Z,17.83
2024-02-21T00:38:06.250Z,22.77
2024-02-21T00:40:32.983Z,20.25
2024-02-21T00:42:59.808Z,20.48
2024-02-21T00:45:26.435Z,20.60
2024-02-21T00:47:53.489Z,19.48
2024-02-21T00:50:20.178Z,21.00
2024-02-21T00:52:47.009Z,23.50
2024-02-21T00:55:13.972Z,20.30
2024-02-21T00:57:40.664Z,20.58
2024-02-21T01:00:09.188Z,21.30
2024-02-21T01:02:36.039Z,25.52
2024-02-21T01:05:03.758Z,18.25
2024-02-21T01:07:30.528Z,17.73
2024-02-21T01:09:57.352Z,20.65
2024-02-21T01:12:24.028Z,20.25
2024-02-21T01:14:50.740Z,18.88
2024-02-21T01:17:17.353Z,21.42
2024-02-21T01:19:44.082Z,21.25
2024-02-21T01:22:11.009Z,19.55
2024-02-21T01:24:37.695Z,20.38
2024-02-21T01:27:04.488Z,18.08
2024-02-21T01:29:31.107Z,16.85
2024-02-21T01:31:57.779Z,18.13
2024-02-21T01:34:24.706Z,22.15
2024-02-21T01:36:51.355Z,21.08
2024-02-21T01:39:18.694Z,17.98
2024-02-21T01:41:45.439Z,20.25
2024-02-21T01:44:11.980Z,20.15
2024-02-21T01:46:38.760Z,19.63
2024-02-21T01:49:07.003Z,17.55
2024-02-21T01:51:33.799Z,25.75
2024-02-21T01:54:00.690Z,23.83
2024-02-21T01:56:28.244Z,18.17
2024-02-21T01:58:56.798Z,18.50
2024-02-21T02:01:23.802Z,17.52
2024-02-21T02:03:51.108Z,21.02
2024-02-21T02:06:18.072Z,18.15
2024-02-21T02:08:45.138Z,20.30
2024-02-21T02:11:12.119Z,19.15
2024-02-21T02:13:39.348Z,17.85
2024-02-21T02:16:06.395Z,16.88
2024-02-21T02:18:33.163Z,17.80
2024-02-21T02:21:00.064Z,18.10
2024-02-21T02:23:27.063Z,20.85
2024-02-21T02:25:54.308Z,17.42
2024-02-21T02:28:22.068Z,17.15
2024-02-21T02:30:49.581Z,19.17
2024-02-21T02:33:18.649Z,18.63
2024-02-21T02:35:45.637Z,18.10
2024-02-21T02:38:13.086Z,17.65
2024-02-21T02:40:41.688Z,16.80
2024-02-21T02:43:08.415Z,20.52
2024-02-21T02:45:34.997Z,19.13
2024-02-21T02:48:01.903Z,21.00
2024-02-21T02:50:29.120Z,22.00
2024-02-21T02:52:56.596Z,16.35
2024-02-21T02:55:23.595Z,17.67
2024-02-21T02:57:50.491Z,17.67
2024-02-21T03:00:17.373Z,19.33
2024-02-21T03:02:47.216Z,17.75
2024-02-21T03:05:16.836Z,18.65
2024-02-21T03:07:44.841Z,17.75
2024-02-21T03:10:12.301Z,18.20
2024-02-21T03:12:39.312Z,15.95
2024-02-21T03:15:06.841Z,17.67
2024-02-21T03:17:35.828Z,15.75
2024-02-21T03:20:06.405Z,19.02
2024-02-21T03:22:36.121Z,18.05
2024-02-21T03:25:02.792Z,16.70
2024-02-21T03:27:29.343Z,16.30
2024-02-21T03:29:56.003Z,17.58
2024-02-21T03:32:22.732Z,18.38
2024-02-21T03:34:49.420Z,17.17
2024-02-21T03:37:16.175Z,18.52
2024-02-21T03:39:42.992Z,16.95
2024-02-21T03:42:09.663Z,16.27
2024-02-21T03:44:36.418Z,19.58
2024-02-21T03:47:03.459Z,17.02
2024-02-21T03:49:30.416Z,17.35
2024-02-21T03:51:57.628Z,17.13
2024-02-21T03:54:24.323Z,16.77
2024-02-21T03:56:51.040Z,18.95
2024-02-21T03:59:17.749Z,15.48
2024-02-21T04:01:44.517Z,16.83
2024-02-21T04:04:12.028Z,19.23
2024-02-21T04:06:48.300Z,17.02
2024-02-21T04:09:14.905Z,15.70
2024-02-21T04:11:41.585Z,15.90
2024-02-21T04:14:08.436Z,15.43
2024-02-21T04:16:36.210Z,15.77
2024-02-21T04:19:03.516Z,16.10
2024-02-21T04:21:30.315Z,16.48
2024-02-21T04:23:56.998Z,18.90
2024-02-21T04:26:23.598Z,17.05
2024-02-21T04:28:50.316Z,16.13
2024-02-21T04:31:17.063Z,17.25
2024-02-21T04:33:43.760Z,17.67
2024-02-21T04:36:10.571Z,16.13
2024-02-21T04:38:37.233Z,16.17
2024-02-21T04:41:03.889Z,16.73
2024-02-21T04:43:30.600Z,19.25
2024-02-21T04:45:57.342Z,17.67
2024-02-21T04:48:23.969Z,15.68
2024-02-21T04:50:50.726Z,13.70
2024-02-21T04:53:17.417Z,15.95
2024-02-21T04:55:44.227Z,13.52
2024-02-21T04:58:10.903Z,16.95
2024-02-21T05:00:37.539Z,16.35
2024-02-21T05:03:04.439Z,14.40
2024-02-21T05:05:31.351Z,16.60
2024-02-21T05:07:58.125Z,14.38
2024-02-21T05:10:24.882Z,15.60
2024-02-21T05:12:51.474Z,16.48
2024-02-21T05:15:18.111Z,15.43
2024-02-21T05:17:44.963Z,15.75
2024-02-21T05:20:12.085Z,14.90
2024-02-21T05:22:38.999Z,15.35
2024-02-21T05:25:06.017Z,15.35
2024-02-21T05:27:32.672Z,17.00
2024-02-21T05:29:59.639Z,16.73
2024-02-21T05:32:27.455Z,13.63
2024-02-21T05:34:54.385Z,15.07
2024-02-21T05:37:21.141Z,16.20
2024-02-21T05:39:47.763Z,16.25
2024-02-21T05:42:14.526Z,17.25
2024-02-21T05:44:41.098Z,13.43
2024-02-21T05:47:11.209Z,12.90
2024-02-21T05:49:38.421Z,14.60
2024-02-21T05:52:07.152Z,13.63
2024-02-21T05:54:33.936Z,14.20
2024-02-21T05:57:00.743Z,14.77
2024-02-21T05:59:27.373Z,14.38
2024-02-21T06:01:59.071Z,14.68
2024-02-21T06:04:26.222Z,11.75
2024-02-21T06:06:53.034Z,15.00
2024-02-21T06:09:19.681Z,16.73
2024-02-21T06:11:47.807Z,16.17
2024-02-21T06:14:14.541Z,13.27
2024-02-21T06:16:41.348Z,15.25
2024-02-21T06:19:10.341Z,14.88
2024-02-21T06:21:38.003Z,13.35
2024-02-21T06:24:05.061Z,15.05
2024-02-21T06:26:31.844Z,14.88
2024-02-21T06:28:59.050Z,14.80
2024-02-21T06:31:25.780Z,16.00
2024-02-21T06:33:52.625Z,15.13
2024-02-21T06:36:19.280Z,11.98
2024-02-21T06:38:46.214Z,15.70
2024-02-21T06:41:17.500Z,15.73
2024-02-21T06:43:44.318Z,13.98
2024-02-21T06:46:10.943Z,13.73
2024-02-21T06:48:37.710Z,15.63
2024-02-21T06:51:05.059Z,13.55
2024-02-21T06:53:31.694Z,14.13
2024-02-21T06:55:59.341Z,16.80
2024-02-21T06:58:26.046Z,14.18
2024-02-21T07:00:52.820Z,14.90
2024-02-21T07:03:19.586Z,14.18
2024-02-21T07:05:46.425Z,15.80
2024-02-21T07:08:13.254Z,15.77
2024-02-21T07:10:39.972Z,13.13
2024-02-21T07:13:06.599Z,12.00
2024-02-21T07:15:34.100Z,11.88
2024-02-21T07:18:01.047Z,13.18
2024-02-21T07:20:27.812Z,15.77
2024-02-21T07:22:57.558Z,12.93
2024-02-21T07:25:24.247Z,14.20
2024-02-21T07:27:50.838Z,17.08
2024-02-21T07:30:17.983Z,14.68
2024-02-21T07:32:44.787Z,16.35
2024-02-21T07:35:13.028Z,16.00
2024-02-21T07:37:39.777Z,16.00
2024-02-21T07:40:14.641Z,14.55
2024-02-21T07:42:41.874Z,18.35
2024-02-21T07:45:09.846Z,16.02
2024-02-21T07:47:36.920Z,14.00
2024-02-21T07:50:07.421Z,16.45
2024-02-21T07:52:34.186Z,14.85
2024-02-21T07:55:00.921Z,12.38
2024-02-21T07:57:27.743Z,15.65
2024-02-21T07:59:54.422Z,13.02
2024-02-21T08:02:21.118Z,11.88
2024-02-21T08:04:47.807Z,15.25
2024-02-21T08:07:14.549Z,14.38
2024-02-21T08:09:41.740Z,13.68
2024-02-21T08:12:08.608Z,13.35
2024-02-21T08:14:35.240Z,12.40
2024-02-21T08:17:01.935Z,12.10
2024-02-21T08:19:28.656Z,13.55
2024-02-21T08:21:55.273Z,14.07
2024-02-21T08:24:23.873Z,13.32
2024-02-21T08:26:50.591Z,13.57
2024-02-21T08:29:17.264Z,12.35
2024-02-21T08:31:43.988Z,14.43
2024-02-21T08:34:10.788Z,12.85
2024-02-21T08:36:37.864Z,13.68
2024-02-21T08:39:06.109Z,14.35
2024-02-21T08:41:46.887Z,13.50
2024-02-21T08:44:18.944Z,13.55
2024-02-21T08:46:45.642Z,14.40
2024-02-21T08:49:12.454Z,13.60
2024-02-21T08:51:39.240Z,13.90
2024-02-21T08:54:05.972Z,14.10
2024-02-21T08:56:32.822Z,12.55
2024-02-21T08:58:59.722Z,14.32
2024-02-21T09:01:28.104Z,13.60
2024-02-21T09:03:55.381Z,15.70
2024-02-21T09:06:22.649Z,14.15
2024-02-21T09:08:49.631Z,15.50
2024-02-21T09:11:16.384Z,12.38
2024-02-21T09:13:43.177Z,12.88
2024-02-21T09:16:10.369Z,11.70
2024-02-21T09:18:37.238Z,10.85
2024-02-21T09:21:04.126Z,13.05
2024-02-21T09:23:32.591Z,12.15
2024-02-21T09:26:01.920Z,14.73
2024-02-21T09:28:28.999Z,15.20
2024-02-21T09:30:55.763Z,13.18
2024-02-21T09:33:30.447Z,14.45
2024-02-21T09:35:59.508Z,12.50
2024-02-21T09:38:26.263Z,9.73
2024-02-21T09:41:02.253Z,13.10
2024-02-21T09:43:30.106Z,9.93
2024-02-21T09:45:59.592Z,9.55
2024-02-21T09:48:35.873Z,10.50
2024-02-21T09:51:04.290Z,8.90
2024-02-21T09:53:32.510Z,9.10
2024-02-21T09:56:00.234Z,9.40
2024-02-21T09:58:28.788Z,8.88
2024-02-21T10:00:55.667Z,9.68
2024-02-21T10:03:23.419Z,8.48
2024-02-21T10:05:53.462Z,8.38
2024-02-21T10:08:21.073Z,8.25
2024-02-21T10:10:48.261Z,8.02
2024-02-21T10:13:29.173Z,11.73
2024-02-21T10:16:09.390Z,8.55
2024-02-21T10:18:36.674Z,13.85
2024-02-21T10:21:07.838Z,10.68
2024-02-21T10:23:49.428Z,9.48
2024-02-21T10:26:17.802Z,10.23
2024-02-21T10:28:46.225Z,10.00
2024-02-21T10:31:24.250Z,8.52
2024-02-21T10:34:06.968Z,9.73
2024-02-21T10:36:34.038Z,9.77
2024-02-21T10:39:00.607Z,9.23
2024-02-21T10:41:29.086Z,8.43
2024-02-21T10:43:57.026Z,7.93
2024-02-21T10:46:26.086Z,7.18
2024-02-21T10:49:18.095Z,6.30
2024-02-21T10:51:46.884Z,6.80
2024-02-21T10:54:46.753Z,7.97
2024-02-21T10:57:14.586Z,6.72
2024-02-21T10:59:42.084Z,8.25
2024-02-21T11:02:09.051Z,6.63
2024-02-21T11:04:37.834Z,5.80
2024-02-21T11:07:10.696Z,6.15
2024-02-21T11:09:38.799Z,5.30
2024-02-21T11:12:07.502Z,6.50
2024-02-21T11:14:38.403Z,5.78
2024-02-21T11:17:16.668Z,6.05
2024-02-21T11:19:43.378Z,6.22
2024-02-21T11:22:21.075Z,5.32
2024-02-21T11:24:47.990Z,5.60
2024-02-21T11:27:17.018Z,4.90
2024-02-21T11:29:48.602Z,4.43
2024-02-21T11:32:22.300Z,5.22
2024-02-21T11:35:03.785Z,5.40
2024-02-21T11:37:35.731Z,6.07
2024-02-21T11:40:04.383Z,3.55
2024-02-21T11:42:34.809Z,4.68
2024-02-21T11:45:02.229Z,5.18
2024-02-21T11:47:32.235Z,4.68
2024-02-21T11:49:58.963Z,5.28
2024-02-21T11:52:27.573Z,5.15
2024-02-21T11:54:55.967Z,4.40
2024-02-21T11:57:22.803Z,3.72
2024-02-21T11:59:52.802Z,3.75
2024-02-21T12:02:20.817Z,3.45
2024-02-21T12:04:47.606Z,3.20
2024-02-21T12:07:15.699Z,3.20
2024-02-21T12:09:43.307Z,4.93
2024-02-21T12:12:10.139Z,4.47
2024-02-21T12:14:37.142Z,4.60
2024-02-21T12:17:05.401Z,4.53
2024-02-21T12:19:33.690Z,4.93
2024-02-21T12:22:01.383Z,4.88
2024-02-21T12:24:29.578Z,4.88
2024-02-21T12:27:01.422Z,4.95
2024-02-21T12:29:29.836Z,4.93
2024-02-21T12:31:56.777Z,5.60
2024-02-21T12:34:34.511Z,4.82
2024-02-21T12:37:05.933Z,4.07
2024-02-21T12:39:33.606Z,4.10
2024-02-21T12:42:00.637Z,4.00
2024-02-21T12:44:27.885Z,3.75
2024-02-21T12:46:56.254Z,3.13
2024-02-21T12:49:23.486Z,4.35
2024-02-21T12:51:50.379Z,3.88
2024-02-21T12:54:17.142Z,2.75
2024-02-21T12:56:43.766Z,4.07
2024-02-21T12:59:10.749Z,3.17
2024-02-21T13:01:39.468Z,2.50
2024-02-21T13:04:07.131Z,3.03
2024-02-21T13:06:34.102Z,3.70
2024-02-21T13:09:04.837Z,3.85
2024-02-21T13:11:32.974Z,2.75
2024-02-21T13:14:00.083Z,2.60
2024-02-21T13:16:30.139Z,2.95
2024-02-21T13:18:56.999Z,1.75
2024-02-21T13:21:23.739Z,2.10
2024-02-21T13:23:50.856Z,2.80
2024-02-21T13:26:17.646Z,4.30
2024-02-21T13:28:46.387Z,3.28
2024-02-21T13:31:13.658Z,3.35
2024-02-21T13:33:40.510Z,4.95
2024-02-21T13:36:07.582Z,4.43
2024-02-21T13:38:34.263Z,4.20
2024-02-21T13:41:01.933Z,3.55
2024-02-21T13:43:29.088Z,5.90
2024-02-21T13:46:01.642Z,8.20
2024-02-21T13:48:29.858Z,7.50
2024-02-21T13:50:56.568Z,9.98
2024-02-21T13:53:24.030Z,3.95
2024-02-21T13:55:51.488Z,3.65
2024-02-21T13:58:18.759Z,6.55
2024-02-21T14:00:46.174Z,5.90
2024-02-21T14:03:13.084Z,6.63
2024-02-21T14:05:43.411Z,4.47
2024-02-21T14:08:10.574Z,4.35
2024-02-21T14:10:38.642Z,4.22
2024-02-21T14:13:05.400Z,5.45
2024-02-21T14:15:32.078Z,2.70
2024-02-21T14:17:58.813Z,3.22
2024-02-21T14:20:25.769Z,3.08
2024-02-21T14:22:52.597Z,3.13
2024-02-21T14:25:19.339Z,3.58
2024-02-21T14:27:46.014Z,3.30
2024-02-21T14:30:12.814Z,3.28
2024-02-21T14:32:45.499Z,3.80
2024-02-21T14:35:12.382Z,3.08
2024-02-21T14:37:39.141Z,3.40
2024-02-21T14:40:06.863Z,3.75
2024-02-21T14:42:33.925Z,3.90
2024-02-21T14:45:05.678Z,4.30
2024-02-21T14:47:33.956Z,3.45
2024-02-21T14:50:02.610Z,3.60
2024-02-21T14:52:29.451Z,4.35
2024-02-21T14:54:57.128Z,3.38
2024-02-21T14:57:24.003Z,3.53
2024-02-21T14:59:51.517Z,3.38
2024-02-21T15:02:18.469Z,3.03
2024-02-21T15:04:45.309Z,4.07
2024-02-21T15:07:11.942Z,3.45
2024-02-21T15:09:38.524Z,5.35
2024-02-21T15:12:07.342Z,3.50
2024-02-21T15:14:34.077Z,4.28
2024-02-21T15:17:00.913Z,3.22
2024-02-21T15:19:27.896Z,3.15
2024-02-21T15:21:54.935Z,3.38
2024-02-21T15:24:21.514Z,4.32
2024-02-21T15:26:48.131Z,3.35
2024-02-21T15:29:14.760Z,3.67
2024-02-21T15:31:45.037Z,4.45
2024-02-21T15:34:11.857Z,4.35
2024-02-21T15:36:38.504Z,4.75
2024-02-21T15:39:05.860Z,6.00
2024-02-21T15:41:32.440Z,7.38
2024-02-21T15:44:00.604Z,8.02
2024-02-21T15:46:27.322Z,10.55
2024-02-21T15:48:55.338Z,10.40
2024-02-21T15:51:23.405Z,9.98
2024-02-21T15:53:50.387Z,10.38
2024-02-21T15:56:17.048Z,7.43
2024-02-21T15:58:44.416Z,7.95
2024-02-21T16:01:12.910Z,8.20
2024-02-21T16:03:41.669Z,5.75
2024-02-21T16:06:08.994Z,7.18
2024-02-21T16:08:37.899Z,5.72
2024-02-21T16:11:04.972Z,5.00
2024-02-21T16:13:31.844Z,8.40
2024-02-21T16:15:59.211Z,5.35
2024-02-21T16:18:25.801Z,6.65
2024-02-21T16:20:52.749Z,6.15
2024-02-21T16:23:19.547Z,5.55
2024-02-21T16:25:46.409Z,5.93
2024-02-21T16:28:13.127Z,6.38
2024-02-21T16:30:39.685Z,6.63
2024-02-21T16:33:06.471Z,6.13
2024-02-21T16:35:33.214Z,6.40
2024-02-21T16:37:59.920Z,5.95
2024-02-21T16:40:26.623Z,5.10
2024-02-21T16:42:53.308Z,6.50
2024-02-21T16:45:21.939Z,6.82
2024-02-21T16:47:48.807Z,6.85
2024-02-21T16:50:16.573Z,7.43
2024-02-21T16:52:43.357Z,6.72
2024-02-21T16:55:10.079Z,6.43
2024-02-21T16:57:36.822Z,8.55
2024-02-21T17:00:12.203Z,8.70
2024-02-21T17:02:51.761Z,8.90
2024-02-21T17:05:26.526Z,8.40
2024-02-21T17:07:53.935Z,8.05
2024-02-21T17:10:20.613Z,8.20
2024-02-21T17:12:47.184Z,10.50
2024-02-21T17:15:14.957Z,8.30
2024-02-21T17:17:41.674Z,9.77
2024-02-21T17:20:10.297Z,9.15
2024-02-21T17:22:37.772Z,9.80
2024-02-21T17:25:10.984Z,10.30
2024-02-21T17:27:38.295Z,9.43
2024-02-21T17:30:07.002Z,8.38
2024-02-21T17:32:35.673Z,8.90
2024-02-21T17:35:05.576Z,8.75
2024-02-21T17:37:35.540Z,9.35
2024-02-21T17:40:06.704Z,8.40
2024-02-21T17:42:33.336Z,7.35
2024-02-21T17:44:59.969Z,8.50
2024-02-21T17:47:27.238Z,8.60
2024-02-21T17:49:55.247Z,9.32
2024-02-21T17:52:22.042Z,9.98
2024-02-21T17:54:48.797Z,10.98
2024-02-21T17:57:16.252Z,9.57
2024-02-21T17:59:44.194Z,9.32
2024-02-21T18:02:10.928Z,8.43
2024-02-21T18:04:37.719Z,11.25
2024-02-21T18:07:06.094Z,9.30
2024-02-21T18:09:32.845Z,12.05
2024-02-21T18:11:59.738Z,9.25
2024-02-21T18:14:26.423Z,11.63
2024-02-21T18:16:53.122Z,11.68
2024-02-21T18:19:20.905Z,10.88
2024-02-21T18:21:47.668Z,13.07
2024-02-21T18:24:14.385Z,13.38
2024-02-21T18:26:41.640Z,12.88
2024-02-21T18:29:10.318Z,12.60
2024-02-21T18:31:38.946Z,11.63
2024-02-21T18:34:05.789Z,12.48
2024-02-21T18:36:32.630Z,17.15
2024-02-21T18:38:59.198Z,13.35
2024-02-21T18:41:27.784Z,14.23
2024-02-21T18:43:55.574Z,13.90
2024-02-21T18:46:22.525Z,16.10
2024-02-21T18:48:49.193Z,13.10
2024-02-21T18:51:17.347Z,14.77
2024-02-21T18:53:44.081Z,14.75
2024-02-21T18:56:11.787Z,14.50
2024-02-21T18:58:38.583Z,12.20
2024-02-21T19:01:05.322Z,11.25
2024-02-21T19:03:31.992Z,11.30
2024-02-21T19:05:58.740Z,11.02
2024-02-21T19:08:25.422Z,8.95
2024-02-21T19:10:52.232Z,10.55
2024-02-21T19:13:21.449Z,11.02
2024-02-21T19:15:48.024Z,10.32
2024-02-21T19:18:14.743Z,10.50
2024-02-21T19:20:41.455Z,10.52
2024-02-21T19:23:09.149Z,12.48
2024-02-21T19:25:36.234Z,9.60
2024-02-21T19:28:02.925Z,10.80
2024-02-21T19:30:29.760Z,10.90
2024-02-21T19:32:56.407Z,11.80
2024-02-21T19:35:23.370Z,12.25
2024-02-21T19:37:50.304Z,12.38
2024-02-21T19:40:17.538Z,11.50
2024-02-21T19:42:44.739Z,14.40
2024-02-21T19:45:11.355Z,11.98
2024-02-21T19:47:38.105Z,14.50
2024-02-21T19:50:05.773Z,14.50
2024-02-21T19:52:32.693Z,13.25
2024-02-21T19:55:00.056Z,12.60
2024-02-21T19:57:26.860Z,13.32
2024-02-21T19:59:54.543Z,12.15
2024-02-21T20:02:21.230Z,14.25
2024-02-21T20:04:48.549Z,14.85
2024-02-21T20:07:15.189Z,13.30
2024-02-21T20:09:42.500Z,13.40
2024-02-21T20:12:09.650Z,14.02
2024-02-21T20:14:36.385Z,13.32
2024-02-21T20:17:03.182Z,13.32
2024-02-21T20:19:29.945Z,14.70
2024-02-21T20:21:56.623Z,12.82
2024-02-21T20:24:35.045Z,13.75
2024-02-21T20:27:07.070Z,14.25
2024-02-21T20:29:33.758Z,14.63
2024-02-21T20:32:01.225Z,13.35
2024-02-21T20:34:31.769Z,15.25
2024-02-21T20:36:58.815Z,14.38
2024-02-21T20:39:25.844Z,14.25
2024-02-21T20:41:52.516Z,14.57
2024-02-21T20:44:19.222Z,13.25
2024-02-21T20:46:46.086Z,12.88
2024-02-21T20:49:12.826Z,14.20
2024-02-21T20:51:39.442Z,13.82
2024-02-21T20:54:06.108Z,16.17
2024-02-21T20:56:32.748Z,14.23
2024-02-21T20:58:59.390Z,13.98
2024-02-21T21:01:26.101Z,13.55
2024-02-21T21:03:52.831Z,12.02
2024-02-21T21:06:19.993Z,13.32
2024-02-21T21:08:46.845Z,15.38
2024-02-21T21:11:13.826Z,13.38
2024-02-21T21:13:40.589Z,12.50
2024-02-21T21:16:07.714Z,12.35
2024-02-21T21:18:34.634Z,12.00
2024-02-21T21:21:02.008Z,12.73
2024-02-21T21:23:29.234Z,13.57
2024-02-21T21:25:56.257Z,13.25
2024-02-21T21:28:23.044Z,11.85
2024-02-21T21:30:51.008Z,13.20
2024-02-21T21:33:19.456Z,12.07
2024-02-21T21:35:46.167Z,11.38
2024-02-21T21:38:14.529Z,9.23
2024-02-21T21:40:44.339Z,10.02
2024-02-21T21:43:11.158Z,8.70
2024-02-21T21:45:37.831Z,12.40
2024-02-21T21:48:05.759Z,9.25
2024-02-21T21:50:32.592Z,11.30
2024-02-21T21:53:00.725Z,9.80
2024-02-21T21:55:27.476Z,9.82
2024-02-21T21:57:54.210Z,8.60
2024-02-21T22:00:21.135Z,8.23
2024-02-21T22:02:48.987Z,10.30
2024-02-21T22:05:16.339Z,7.50
2024-02-21T22:07:43.104Z,7.20
2024-02-21T22:10:12.599Z,8.23
2024-02-21T22:12:39.199Z,7.88
2024-02-21T22:15:06.510Z,7.65
2024-02-21T22:17:33.947Z,7.72
2024-02-21T22:20:00.857Z,7.13
2024-02-21T22:22:27.633Z,7.72
2024-02-21T22:24:54.281Z,8.32
2024-02-21T22:27:20.849Z,7.90
2024-02-21T22:29:47.436Z,10.48
2024-02-21T22:32:14.175Z,9.13
2024-02-21T22:34:41.084Z,9.60
2024-02-21T22:37:07.795Z,8.43
2024-02-21T22:39:34.558Z,8.18
2024-02-21T22:42:02.153Z,8.77
2024-02-21T22:44:28.770Z,9.07
2024-02-21T22:46:57.657Z,7.53
2024-02-21T22:49:24.685Z,9.70
2024-02-21T22:51:51.344Z,8.85
2024-02-21T22:54:18.055Z,8.10
2024-02-21T22:56:44.798Z,7.13
2024-02-21T22:59:13.161Z,8.80
2024-02-21T23:01:41.101Z,7.38
2024-02-21T23:04:11.340Z,8.88
2024-02-21T23:06:41.314Z,7.57
2024-02-21T23:09:09.354Z,9.35
2024-02-21T23:11:36.385Z,8.05
2024-02-21T23:14:03.195Z,7.43
2024-02-21T23:16:29.893Z,7.78
2024-02-21T23:18:56.669Z,8.23
2024-02-21T23:21:23.330Z,7.20
2024-02-21T23:23:50.086Z,7.30
2024-02-21T23:26:16.774Z,9.35
2024-02-21T23:28:44.440Z,7.90
2024-02-21T23:31:14.190Z,6.68
2024-02-21T23:33:40.980Z,7.80
2024-02-21T23:36:08.649Z,7.80
2024-02-21T23:38:35.708Z,7.97
2024-02-21T23:41:02.361Z,7.10
2024-02-21T23:43:30.746Z,6.85
2024-02-21T23:45:57.491Z,9.32
2024-02-21T23:48:24.126Z,8.05
2024-02-21T23:50:50.852Z,8.77
2024-02-21T23:53:17.454Z,9.10
2024-02-21T23:55:44.255Z,6.82
2024-02-21T23:58:10.976Z,8.75
